Time;durP1;ratioP1;P1;durP2;ratioP2;P2;SDS_P1;SDS_P2;PMS_P1;PMS_P2;Temp;Humidity;BMP_temperature;BMP_pressure;BME280_temperature;BME280_humidity;BME280_pressure;Samples;Min_cycle;Max_cycle;Signal;HPM_P1;HPM_P2
2023/01/20 00:02:07;;;;;;;;;;;;;;;;;;;;;
2023/01/20 00:04:49;;;;;;;62.55;34.67;;;0.80;99.90;;;;;;4918712;29;20270;-86
2023/01/20 00:07:18;;;;;;;74.40;37.58;;;0.50;99.90;;;;;;4932053;29;20209;-86
2023/01/20 00:09:46;;;;;;;64.88;38.25;;;0.50;99.90;;;;;;4930225;29;20211;-85
2023/01/20 00:12:13;;;;;;;50.03;35.08;;;0.40;99.90;;;;;;4944671;29;20239;-85
2023/01/20 00:14:42;;;;;;;48.90;33.20;;;0.40;99.90;;;;;;4936272;29;20307;-86
2023/01/20 00:17:16;;;;;;;65.65;35.33;;;0.50;99.90;;;;;;4921878;29;20221;-87
2023/01/20 00:19:45;;;;;;;56.78;32.45;;;0.60;99.90;;;;;;4929580;29;20254;-84
2023/01/20 00:22:12;;;;;;;65.78;35.35;;;0.50;99.90;;;;;;4922579;29;20220;-86
2023/01/20 00:24:40;;;;;;;60.45;35.35;;;0.50;99.90;;;;;;4923679;29;20258;-85
2023/01/20 00:27:09;;;;;;;56.63;32.55;;;0.40;99.90;;;;;;4932733;29;20537;-86
2023/01/20 00:29:38;;;;;;;56.50;34.42;;;0.40;99.90;;;;;;4923835;29;20212;-86
2023/01/20 00:32:06;;;;;;;55.45;32.72;;;0.10;99.90;;;;;;4926210;29;20602;-84
2023/01/20 00:34:36;;;;;;;62.50;34.38;;;0.20;99.90;;;;;;4922020;29;20228;-87
2023/01/20 00:37:04;;;;;;;55.22;34.05;;;0.20;99.90;;;;;;4920334;29;20216;-85
2023/01/20 00:39:31;;;;;;;58.03;32.70;;;0.10;99.90;;;;;;4922863;29;20211;-86
2023/01/20 00:41:58;;;;;;;89.43;43.45;;;0.20;99.90;;;;;;4923313;29;20220;-86
2023/01/20 00:44:26;;;;;;;59.92;33.33;;;0.10;99.90;;;;;;4931540;29;20207;-86
2023/01/20 00:46:54;;;;;;;56.92;33.63;;;0.10;99.90;;;;;;4929470;29;20204;-87
2023/01/20 00:49:24;;;;;;;51.03;32.97;;;0.10;99.90;;;;;;4917341;29;20265;-85
2023/01/20 00:51:50;;;;;;;51.85;33.28;;;0.10;99.90;;;;;;4931748;29;20263;-88
2023/01/20 00:54:18;;;;;;;52.05;33.63;;;0.10;99.90;;;;;;4927286;29;20212;-86
2023/01/20 00:56:46;;;;;;;51.65;31.70;;;0.00;99.90;;;;;;4923292;29;20220;-85
2023/01/20 00:59:15;;;;;;;50.95;33.53;;;-0.10;99.90;;;;;;4928103;29;20254;-86
2023/01/20 01:01:44;;;;;;;57.88;33.97;;;-0.10;99.90;;;;;;4942212;29;20271;-83
2023/01/20 01:04:14;;;;;;;53.65;32.15;;;-0.10;99.90;;;;;;4931301;29;20417;-84
2023/01/20 01:06:44;;;;;;;52.03;32.55;;;-0.10;99.90;;;;;;4915954;29;20231;-83
2023/01/20 01:09:11;;;;;;;58.05;33.50;;;-0.10;99.90;;;;;;4940586;29;20187;-86
2023/01/20 01:11:39;;;;;;;59.13;34.13;;;-0.10;99.90;;;;;;4976970;28;20275;-83
2023/01/20 01:14:06;;;;;;;51.80;31.42;;;0.00;99.90;;;;;;4949421;29;20491;-84
2023/01/20 01:16:35;;;;;;;46.13;32.22;;;-0.10;99.90;;;;;;4930496;29;20219;-84
2023/01/20 01:19:02;;;;;;;47.28;32.17;;;-0.40;99.90;;;;;;4929313;29;20211;-83
2023/01/20 01:21:30;;;;;;;57.45;33.03;;;-0.20;99.90;;;;;;4934679;29;20240;-85
2023/01/20 01:23:57;;;;;;;57.30;34.13;;;0.00;99.90;;;;;;4937972;29;20305;-86
2023/01/20 01:26:25;;;;;;;47.67;31.92;;;-0.10;99.90;;;;;;4933414;28;20200;-86
2023/01/20 01:28:52;;;;;;;53.40;33.90;;;-0.10;99.90;;;;;;4943581;28;20193;-85
2023/01/20 01:31:23;;;;;;;51.78;33.28;;;-0.40;99.90;;;;;;4938497;28;20770;-82
2023/01/20 01:33:50;;;;;;;58.05;34.30;;;-0.30;99.90;;;;;;4931133;29;20208;-85
2023/01/20 01:36:19;;;;;;;52.80;32.92;;;-0.30;99.90;;;;;;4924866;29;20209;-85
2023/01/20 01:38:46;;;;;;;61.28;38.08;;;-0.50;99.90;;;;;;4925864;29;20272;-86
2023/01/20 01:41:24;;;;;;;57.78;35.08;;;-0.30;99.90;;;;;;4929053;29;20208;-85
2023/01/20 01:44:06;;;;;;;65.95;38.08;;;-0.10;99.90;;;;;;4930902;29;20252;-85
2023/01/20 01:46:35;;;;;;;60.53;35.97;;;-0.20;99.90;;;;;;4917286;29;20212;-84
2023/01/20 01:49:18;;;;;;;52.22;33.67;;;0.00;99.90;;;;;;4931551;29;20515;-83
2023/01/20 01:52:01;;;;;;;58.65;35.80;;;0.10;99.90;;;;;;4925129;29;20235;-83
2023/01/20 01:54:34;;;;;;;65.65;36.42;;;0.10;99.90;;;;;;4922287;29;20216;-83
2023/01/20 01:57:06;;;;;;;53.47;34.25;;;0.10;99.90;;;;;;4926329;29;20252;-83
2023/01/20 01:59:38;;;;;;;62.80;36.95;;;0.10;99.90;;;;;;4926134;29;20252;-83
2023/01/20 02:02:08;;;;;;;59.20;33.22;;;0.10;99.90;;;;;;4925958;29;20204;-83
2023/01/20 02:04:37;;;;;;;59.85;35.35;;;0.10;99.90;;;;;;4922581;29;20212;-83
2023/01/20 02:07:09;;;;;;;53.25;35.05;;;0.10;99.90;;;;;;4926157;29;20287;-83
2023/01/20 02:09:40;;;;;;;64.75;33.70;;;0.10;99.90;;;;;;4924800;29;20212;-83
2023/01/20 02:12:12;;;;;;;53.00;33.05;;;0.20;99.90;;;;;;4920061;29;20511;-85
2023/01/20 02:14:49;;;;;;;60.97;35.78;;;0.20;99.90;;;;;;4918752;29;20208;-84
2023/01/20 02:17:27;;;;;;;56.53;30.95;;;0.30;99.90;;;;;;4921632;29;20592;-84
2023/01/20 02:20:19;;;;;;;56.28;35.03;;;0.30;99.90;;;;;;4920524;29;20204;-83
2023/01/20 02:23:04;;;;;;;61.03;34.75;;;0.30;99.90;;;;;;4918125;29;20200;-85
2023/01/20 02:26:09;;;;;;;54.45;32.58;;;0.30;99.90;;;;;;4925445;29;20228;-83
2023/01/20 02:29:02;;;;;;;52.65;31.65;;;0.40;99.90;;;;;;4919535;29;20208;-84
2023/01/20 02:32:10;;;;;;;50.75;32.53;;;0.40;99.90;;;;;;4923558;29;20208;-82
2023/01/20 02:34:53;;;;;;;54.75;33.40;;;0.40;99.90;;;;;;4914551;29;20201;-82
2023/01/20 02:37:55;;;;;;;50.30;33.83;;;0.40;99.90;;;;;;4937212;29;20211;-82
2023/01/20 02:40:22;;;;;;;63.58;31.90;;;0.40;99.90;;;;;;4925680;29;20211;-80
2023/01/20 02:43:01;;;;;;;57.50;34.50;;;0.50;99.90;;;;;;4925908;29;20268;-81
2023/01/20 02:45:38;;;;;;;54.35;33.95;;;0.50;99.90;;;;;;4925199;29;20204;-81
2023/01/20 02:48:27;;;;;;;56.88;31.23;;;0.60;99.90;;;;;;4926108;29;20271;-81
2023/01/20 02:50:59;;;;;;;57.00;32.60;;;0.60;99.90;;;;;;4919689;29;20293;-82
2023/01/20 02:53:39;;;;;;;52.45;36.53;;;0.60;99.90;;;;;;4938822;29;20427;-81
2023/01/20 02:56:08;;;;;;;51.83;32.78;;;0.60;99.90;;;;;;4934085;29;20212;-84
2023/01/20 02:58:49;;;;;;;50.58;30.80;;;0.60;99.90;;;;;;4935537;29;20220;-82
2023/01/20 03:01:22;;;;;;;60.35;33.40;;;0.60;99.90;;;;;;4924915;29;20206;-81
2023/01/20 03:03:54;;;;;;;55.88;31.33;;;0.60;99.90;;;;;;4921790;29;20781;-83
2023/01/20 03:06:34;;;;;;;49.30;30.63;;;0.60;99.90;;;;;;4926448;29;20681;-81
2023/01/20 03:09:09;;;;;;;55.67;35.38;;;0.70;99.90;;;;;;4912408;29;20225;-81
2023/01/20 03:11:42;;;;;;;54.15;35.22;;;0.70;99.90;;;;;;4925325;29;20211;-81
2023/01/20 03:14:12;;;;;;;54.95;33.78;;;0.70;99.90;;;;;;4926597;29;20267;-82
2023/01/20 03:16:40;;;;;;;58.53;34.42;;;0.60;99.90;;;;;;4934094;29;20250;-81
2023/01/20 03:19:10;;;;;;;53.60;32.10;;;0.70;99.90;;;;;;4930991;29;20220;-83
2023/01/20 03:21:37;;;;;;;55.15;33.17;;;0.60;99.90;;;;;;4926300;29;20236;-82
2023/01/20 03:24:07;;;;;;;53.33;32.85;;;0.60;99.90;;;;;;4924435;29;20224;-83
2023/01/20 03:26:34;;;;;;;53.50;31.70;;;0.50;99.90;;;;;;4925543;29;20200;-82
2023/01/20 03:29:07;;;;;;;56.80;35.13;;;0.50;99.90;;;;;;4936400;29;20215;-83
2023/01/20 03:31:43;;;;;;;61.10;34.25;;;0.50;99.90;;;;;;4944624;29;20221;-82
2023/01/20 03:34:14;;;;;;;55.92;33.00;;;0.40;99.90;;;;;;4930769;29;20237;-82
2023/01/20 03:36:43;;;;;;;60.65;36.88;;;0.40;99.90;;;;;;4925614;29;20207;-83
2023/01/20 03:39:11;;;;;;;59.00;35.20;;;0.40;99.90;;;;;;4924709;29;20256;-84
2023/01/20 03:42:02;;;;;;;63.08;36.75;;;0.30;99.90;;;;;;4924824;29;20205;-81
2023/01/20 03:45:06;;;;;;;66.70;37.67;;;0.20;99.90;;;;;;4923172;29;20220;-82
2023/01/20 03:47:49;;;;;;;63.13;36.10;;;0.10;99.90;;;;;;4921424;29;20219;-82
2023/01/20 03:50:30;;;;;;;60.60;39.38;;;0.10;99.90;;;;;;4925462;29;20258;-84
2023/01/20 03:53:15;;;;;;;61.85;41.05;;;0.00;99.90;;;;;;4924911;29;20208;-83
2023/01/20 03:55:44;;;;;;;75.47;41.22;;;-0.10;99.90;;;;;;4925796;29;20200;-81
2023/01/20 03:58:19;;;;;;;72.70;40.78;;;-0.20;99.90;;;;;;4939373;29;20215;-84
2023/01/20 04:00:49;;;;;;;59.28;36.10;;;-0.20;99.90;;;;;;4926508;29;20222;-89
2023/01/20 04:03:28;;;;;;;64.22;38.22;;;-0.10;99.90;;;;;;4929067;29;20388;-82
2023/01/20 04:05:59;;;;;;;67.40;38.50;;;-0.10;99.90;;;;;;4918742;29;20228;-85
2023/01/20 04:08:42;;;;;;;61.17;37.47;;;-0.10;99.90;;;;;;4936794;29;20440;-82
2023/01/20 04:11:10;;;;;;;77.20;42.22;;;-0.20;99.90;;;;;;4906448;29;20239;-82
2023/01/20 04:13:38;;;;;;;63.97;40.30;;;-0.20;99.90;;;;;;4926485;29;20268;-82
2023/01/20 04:16:14;;;;;;;71.63;43.03;;;-0.30;99.90;;;;;;4916600;29;20203;-83
2023/01/20 04:18:44;;;;;;;67.93;41.17;;;-0.30;99.90;;;;;;4932563;29;20208;-82
2023/01/20 04:21:18;;;;;;;62.33;42.05;;;-0.40;99.90;;;;;;4930747;29;20211;-83
2023/01/20 04:23:55;;;;;;;73.15;44.08;;;-0.40;99.90;;;;;;4924061;29;20220;-82
2023/01/20 04:26:22;;;;;;;68.10;40.30;;;-0.50;99.90;;;;;;4920218;29;20223;-81
2023/01/20 04:28:50;;;;;;;76.68;41.95;;;-0.50;99.90;;;;;;4926497;29;20212;-82
2023/01/20 04:31:17;;;;;;;69.55;42.03;;;-0.60;99.90;;;;;;4923666;29;20459;-81
2023/01/20 04:33:56;;;;;;;80.03;43.60;;;-0.70;99.90;;;;;;4922764;29;20591;-80
2023/01/20 04:36:27;;;;;;;75.18;46.78;;;-0.70;99.90;;;;;;4923360;29;20233;-82
2023/01/20 04:38:55;;;;;;;68.65;43.30;;;-0.70;99.90;;;;;;4923103;29;20523;-82
2023/01/20 04:41:22;;;;;;;78.30;44.95;;;-0.80;99.90;;;;;;4922233;29;20209;-83
2023/01/20 04:43:51;;;;;;;77.30;47.10;;;-0.80;99.90;;;;;;4913349;29;20196;-82
2023/01/20 04:46:18;;;;;;;86.35;52.67;;;-0.80;99.90;;;;;;4928076;29;20208;-81
2023/01/20 04:48:45;;;;;;;74.45;46.92;;;-0.90;99.90;;;;;;4930571;29;20232;-83
2023/01/20 04:51:12;;;;;;;87.20;49.80;;;-0.90;99.90;;;;;;4923029;29;20204;-82
2023/01/20 04:53:41;;;;;;;82.47;47.72;;;-0.90;99.90;;;;;;4923509;29;20234;-80
2023/01/20 04:56:13;;;;;;;89.10;50.15;;;-1.00;99.90;;;;;;4930864;29;20477;-80
2023/01/20 04:58:41;;;;;;;80.05;50.45;;;-1.00;99.90;;;;;;4921637;29;20219;-82
2023/01/20 05:01:08;;;;;;;79.43;47.72;;;-1.10;99.90;;;;;;4909828;29;20590;-87
2023/01/20 05:03:36;;;;;;;79.90;47.67;;;-1.10;99.90;;;;;;4921315;29;20219;-83
2023/01/20 05:06:05;;;;;;;84.72;48.92;;;-1.00;99.90;;;;;;4920764;29;20212;-84
2023/01/20 05:08:35;;;;;;;84.60;50.75;;;-0.90;99.90;;;;;;4922488;28;20210;-86
2023/01/20 05:11:03;;;;;;;85.65;52.35;;;-0.80;99.90;;;;;;4923052;28;20212;-81
2023/01/20 05:13:30;;;;;;;90.78;54.53;;;-0.50;99.90;;;;;;4922326;29;20240;-84
2023/01/20 05:15:58;;;;;;;93.97;51.50;;;-0.30;99.90;;;;;;4925494;29;20216;-81
2023/01/20 05:18:28;;;;;;;86.32;45.90;;;-0.20;99.90;;;;;;4923151;29;20504;-82
2023/01/20 05:20:56;;;;;;;79.50;48.10;;;0.00;99.90;;;;;;4924463;29;20256;-82
2023/01/20 05:23:23;;;;;;;82.28;48.40;;;0.10;99.90;;;;;;4908087;29;20212;-83
2023/01/20 05:25:53;;;;;;;83.85;50.10;;;0.20;99.90;;;;;;4926800;29;20212;-83
2023/01/20 05:28:36;;;;;;;73.22;42.55;;;0.30;99.90;;;;;;4925488;29;20534;-83
2023/01/20 05:31:05;;;;;;;73.05;46.08;;;0.40;99.90;;;;;;4908325;29;20212;-83
2023/01/20 05:33:34;;;;;;;77.35;46.30;;;0.50;99.90;;;;;;4925121;29;20247;-87
2023/01/20 05:36:08;;;;;;;64.60;36.58;;;0.50;99.90;;;;;;4922622;29;20219;-81
2023/01/20 05:38:35;;;;;;;72.03;40.42;;;0.50;99.90;;;;;;4929463;29;20512;-86
2023/01/20 05:41:11;;;;;;;92.63;50.05;;;0.60;99.90;;;;;;4936044;29;20394;-81
2023/01/20 05:43:42;;;;;;;111.30;59.88;;;0.70;99.90;;;;;;4924478;29;20211;-84
2023/01/20 05:46:10;;;;;;;84.68;45.95;;;0.80;99.90;;;;;;4924727;29;20200;-84
2023/01/20 05:48:37;;;;;;;75.65;42.25;;;0.80;99.90;;;;;;4934561;29;20215;-84
2023/01/20 05:51:05;;;;;;;69.85;44.45;;;0.90;99.90;;;;;;4925210;29;20420;-85
2023/01/20 05:53:54;;;;;;;70.55;40.83;;;1.10;99.90;;;;;;4932005;29;20462;-84
2023/01/20 05:56:36;;;;;;;63.30;38.35;;;1.00;99.90;;;;;;4927995;29;20244;-83
2023/01/20 05:59:06;;;;;;;59.53;38.20;;;1.00;99.90;;;;;;4930925;29;20613;-82
2023/01/20 06:01:48;;;;;;;57.78;38.80;;;1.00;99.90;;;;;;4928578;29;20236;-84
2023/01/20 06:04:16;;;;;;;56.60;35.75;;;1.00;99.90;;;;;;4925786;29;20259;-83
2023/01/20 06:06:45;;;;;;;66.40;37.80;;;1.00;99.90;;;;;;4928826;29;20236;-86
2023/01/20 06:09:17;;;;;;;61.40;37.15;;;0.90;99.90;;;;;;4928016;29;20271;-84
2023/01/20 06:11:46;;;;;;;64.55;37.65;;;0.70;99.90;;;;;;4928793;29;20193;-88
2023/01/20 06:14:19;;;;;;;66.80;40.83;;;0.40;99.90;;;;;;4938539;29;20284;-87
2023/01/20 06:16:46;;;;;;;80.93;42.03;;;0.30;99.90;;;;;;4930964;29;20216;-87
2023/01/20 06:19:13;;;;;;;74.90;41.40;;;0.10;99.90;;;;;;4933664;29;20346;-86
2023/01/20 06:21:43;;;;;;;59.85;38.22;;;-0.20;99.90;;;;;;4929983;29;20276;-85
2023/01/20 06:24:12;;;;;;;68.05;40.72;;;-0.40;99.90;;;;;;4931715;29;20200;-85
2023/01/20 06:26:40;;;;;;;66.20;39.30;;;-0.40;99.90;;;;;;4932335;29;20209;-86
2023/01/20 06:29:08;;;;;;;60.15;40.30;;;-0.70;99.90;;;;;;4929781;29;20552;-87
2023/01/20 06:31:35;;;;;;;67.47;40.50;;;-0.70;99.90;;;;;;4927348;29;20232;-86
2023/01/20 06:34:04;;;;;;;71.13;39.97;;;-0.80;99.90;;;;;;4914477;29;20292;-88
2023/01/20 06:36:31;;;;;;;62.80;37.80;;;-0.70;99.90;;;;;;4916238;29;20264;-86
2023/01/20 06:39:00;;;;;;;70.90;40.20;;;-0.80;99.90;;;;;;4924846;29;20205;-86
2023/01/20 06:41:29;;;;;;;69.63;41.65;;;-0.90;99.90;;;;;;4930468;29;20223;-86
2023/01/20 06:43:56;;;;;;;72.45;41.88;;;-1.10;99.90;;;;;;4936665;29;20200;-86
2023/01/20 06:46:26;;;;;;;71.30;42.85;;;-1.00;99.90;;;;;;4942428;29;20207;-86
2023/01/20 06:48:59;;;;;;;68.28;40.60;;;-0.90;99.90;;;;;;4933602;29;20216;-90
2023/01/20 06:51:48;;;;;;;80.60;43.60;;;-0.90;99.90;;;;;;4929820;29;20204;-87
2023/01/20 06:54:16;;;;;;;68.85;44.22;;;-0.90;99.90;;;;;;4929392;29;20228;-86
2023/01/20 06:56:46;;;;;;;66.70;41.05;;;-0.90;99.90;;;;;;4930751;29;20212;-85
2023/01/20 06:59:16;;;;;;;66.57;42.42;;;-0.90;99.90;;;;;;4927219;29;20239;-82
2023/01/20 07:01:51;;;;;;;68.95;40.95;;;-1.00;99.90;;;;;;4931021;29;20180;-83
2023/01/20 07:04:19;;;;;;;76.03;46.65;;;-1.20;99.90;;;;;;4926576;29;20204;-83
2023/01/20 07:06:46;;;;;;;71.55;45.30;;;-1.10;99.90;;;;;;4926619;29;20212;-83
2023/01/20 07:09:14;;;;;;;96.30;55.60;;;-1.00;99.90;;;;;;4907393;29;20209;-83
2023/01/20 07:11:42;;;;;;;72.10;50.67;;;-0.90;99.90;;;;;;4909474;29;20236;-83
2023/01/20 07:14:09;;;;;;;76.35;49.40;;;-0.80;99.90;;;;;;4921041;29;20265;-83
2023/01/20 07:16:36;;;;;;;84.72;47.25;;;-0.80;99.90;;;;;;4928115;29;20346;-83
2023/01/20 07:19:05;;;;;;;88.43;52.75;;;-0.70;99.90;;;;;;4925172;29;20208;-83
2023/01/20 07:21:33;;;;;;;75.13;48.38;;;-0.60;99.90;;;;;;4925751;29;20510;-83
2023/01/20 07:24:01;;;;;;;85.25;50.20;;;-0.50;99.90;;;;;;4925127;29;20584;-83
2023/01/20 07:26:29;;;;;;;77.05;43.53;;;-0.60;99.90;;;;;;4925351;29;20213;-83
2023/01/20 07:29:01;;;;;;;69.38;44.90;;;-0.70;99.90;;;;;;4926013;29;20766;-83
2023/01/20 07:31:30;;;;;;;73.60;45.42;;;-0.80;99.90;;;;;;4922864;29;20434;-84
2023/01/20 07:33:59;;;;;;;74.60;44.63;;;-0.60;99.90;;;;;;4938117;29;20235;-83
2023/01/20 07:36:27;;;;;;;79.60;47.65;;;-0.50;99.90;;;;;;4932109;29;20247;-88
2023/01/20 07:38:55;;;;;;;72.43;45.42;;;-0.30;99.90;;;;;;4939017;29;20267;-88
2023/01/20 07:41:24;;;;;;;75.95;46.72;;;-0.20;99.90;;;;;;4943860;29;20189;-88
2023/01/20 07:43:52;;;;;;;97.13;50.92;;;-0.10;99.90;;;;;;4929713;29;20216;-85
2023/01/20 07:46:20;;;;;;;81.00;49.05;;;0.10;99.90;;;;;;4924606;29;20247;-87
2023/01/20 07:48:47;;;;;;;83.63;49.65;;;0.20;99.90;;;;;;4922532;29;20217;-84
2023/01/20 07:51:17;;;;;;;97.88;53.38;;;0.30;99.90;;;;;;4925948;29;20267;-83
2023/01/20 07:53:48;;;;;;;76.45;48.50;;;0.40;99.90;;;;;;4927177;29;20237;-86
2023/01/20 07:56:17;;;;;;;69.70;43.67;;;0.90;99.90;;;;;;4926209;29;20356;-82
2023/01/20 07:58:49;;;;;;;70.82;38.72;;;1.70;99.90;;;;;;4924798;29;20224;-83
2023/01/20 08:01:25;;;;;;;73.93;39.20;;;2.60;99.90;;;;;;4925443;29;20434;-84
2023/01/20 08:03:53;;;;;;;67.45;38.40;;;3.50;99.90;;;;;;4924567;29;20237;-84
2023/01/20 08:06:24;;;;;;;67.32;38.25;;;4.30;99.90;;;;;;4922924;29;20198;-86
2023/01/20 08:08:53;;;;;;;60.75;37.17;;;4.50;99.90;;;;;;4925218;29;20391;-83
2023/01/20 08:11:21;;;;;;;69.72;41.08;;;4.30;99.90;;;;;;4922892;29;20242;-84
2023/01/20 08:13:51;;;;;;;65.85;39.33;;;3.80;99.90;;;;;;4924251;29;20242;-85
2023/01/20 08:16:22;;;;;;;69.88;40.90;;;3.70;99.90;;;;;;4924582;29;20207;-83
2023/01/20 08:18:52;;;;;;;69.45;39.63;;;3.50;99.90;;;;;;4934094;29;20233;-85
2023/01/20 08:21:25;;;;;;;66.07;39.53;;;3.40;99.90;;;;;;4926748;29;20259;-85
2023/01/20 08:24:05;;;;;;;69.90;40.97;;;3.10;99.90;;;;;;4926697;29;20557;-84
2023/01/20 08:26:32;;;;;;;63.65;41.08;;;2.80;99.90;;;;;;4930729;29;20216;-83
2023/01/20 08:29:06;;;;;;;63.85;39.63;;;2.80;99.90;;;;;;4932232;29;20209;-83
2023/01/20 08:31:34;;;;;;;65.10;38.85;;;2.90;99.90;;;;;;4930894;29;20280;-83
2023/01/20 08:34:02;;;;;;;66.85;40.88;;;2.90;99.90;;;;;;4928363;29;20226;-83
2023/01/20 08:36:33;;;;;;;67.10;38.03;;;2.90;99.90;;;;;;4929700;29;20306;-84
2023/01/20 08:39:04;;;;;;;58.83;36.75;;;2.80;99.90;;;;;;4928747;29;20213;-83
2023/01/20 08:41:37;;;;;;;68.75;37.10;;;2.50;99.90;;;;;;4927942;29;20209;-86
2023/01/20 08:44:08;;;;;;;60.88;35.75;;;2.40;99.90;;;;;;4924723;29;20494;-84
2023/01/20 08:47:02;;;;;;;66.15;36.30;;;2.40;99.90;;;;;;4926100;29;20208;-84
2023/01/20 08:49:29;;;;;;;57.65;34.83;;;2.60;99.90;;;;;;4926779;29;20213;-83
2023/01/20 08:51:59;;;;;;;55.08;34.83;;;2.70;99.90;;;;;;4933682;29;20485;-82
2023/01/20 08:54:33;;;;;;;57.22;35.95;;;2.80;99.90;;;;;;4923380;29;20263;-85
2023/01/20 08:57:15;;;;;;;53.15;32.20;;;2.80;99.90;;;;;;4925751;29;20205;-83
2023/01/20 08:59:46;;;;;;;56.28;32.47;;;2.90;99.90;;;;;;4925399;29;20319;-83
2023/01/20 09:02:14;;;;;;;43.58;28.48;;;3.00;99.90;;;;;;4925797;29;20285;-81
2023/01/20 09:04:51;;;;;;;48.72;28.98;;;3.40;99.90;;;;;;4926656;29;20211;-84
2023/01/20 09:07:22;;;;;;;48.22;28.60;;;3.70;99.90;;;;;;4933771;29;20218;-84
2023/01/20 09:09:52;;;;;;;41.03;28.08;;;3.80;99.90;;;;;;4919703;29;20278;-85
2023/01/20 09:12:21;;;;;;;39.63;26.38;;;3.80;99.90;;;;;;4920251;29;20668;-85
2023/01/20 09:14:52;;;;;;;45.22;25.90;;;3.80;99.90;;;;;;4919451;29;20338;-85
2023/01/20 09:17:22;;;;;;;43.03;25.63;;;3.80;99.90;;;;;;4926606;29;20262;-84
2023/01/20 09:19:53;;;;;;;41.28;25.45;;;3.80;99.90;;;;;;4928317;29;20503;-83
2023/01/20 09:22:20;;;;;;;36.88;25.02;;;4.00;99.90;;;;;;4928640;29;20203;-83
2023/01/20 09:24:48;;;;;;;41.00;26.40;;;4.10;99.90;;;;;;4929119;29;20664;-84
2023/01/20 09:27:18;;;;;;;40.42;25.65;;;4.20;99.90;;;;;;4928100;29;20278;-85
2023/01/20 09:29:50;;;;;;;52.45;26.55;;;4.00;99.90;;;;;;4916066;29;20217;-85
2023/01/20 09:32:19;;;;;;;36.50;24.67;;;4.20;99.90;;;;;;4940717;29;20226;-84
2023/01/20 09:34:46;;;;;;;38.05;25.92;;;4.20;99.90;;;;;;4942372;29;20237;-86
2023/01/20 09:46:19;;;;;;;43.65;24.27;;;4.80;99.90;;;;;;4918107;29;20211;-86
2023/01/20 09:55:26;;;;;;;45.00;25.00;;;4.70;99.90;;;;;;4922869;28;20231;-83
2023/01/20 09:58:19;;;;;;;31.48;21.20;;;4.80;99.90;;;;;;4920558;29;20251;-85
2023/01/20 10:00:59;;;;;;;44.78;21.25;;;5.20;99.90;;;;;;4926958;29;20208;-86
2023/01/20 10:03:45;;;;;;;29.10;18.88;;;5.50;99.90;;;;;;4926421;29;20523;-84
2023/01/20 10:06:19;;;;;;;34.95;21.45;;;5.40;99.90;;;;;;4923062;29;20207;-84
2023/01/20 10:09:26;;;;;;;26.70;16.83;;;5.20;99.90;;;;;;4946696;29;20229;-89
2023/01/20 10:12:20;;;;;;;33.45;20.25;;;5.30;99.90;;;;;;4921356;29;20215;-83
2023/01/20 10:14:57;;;;;;;40.15;22.55;;;5.10;99.90;;;;;;4920870;29;20507;-86
2023/01/20 10:17:44;;;;;;;26.88;20.17;;;5.00;99.90;;;;;;4927011;29;20212;-85
2023/01/20 10:20:21;;;;;;;30.90;20.20;;;4.80;99.90;;;;;;4941464;29;20209;-85
2023/01/20 10:23:16;;;;;;;27.98;19.83;;;4.50;99.90;;;;;;4928695;29;20223;-84
2023/01/20 10:26:19;;;;;;;33.38;20.52;;;4.60;99.90;;;;;;4918185;29;20213;-84
2023/01/20 10:29:01;;;;;;;33.00;19.83;;;4.40;99.90;;;;;;4921398;29;20278;-87
2023/01/20 10:31:36;;;;;;;26.83;19.00;;;4.20;99.90;;;;;;4911842;29;20213;-86
2023/01/20 10:34:18;;;;;;;32.10;18.20;;;4.00;99.90;;;;;;4918188;29;20594;-87
2023/01/20 10:36:55;;;;;;;26.00;17.13;;;3.90;99.90;;;;;;4902934;29;20207;-85
2023/01/20 10:39:48;;;;;;;23.13;16.90;;;4.00;99.90;;;;;;4931226;29;20536;-86
2023/01/20 10:42:17;;;;;;;27.15;17.73;;;4.00;99.90;;;;;;4929237;29;20279;-88
2023/01/20 10:44:46;;;;;;;23.45;16.63;;;4.10;99.90;;;;;;4912887;29;20215;-85
2023/01/20 10:47:27;;;;;;;29.98;17.67;;;4.00;99.90;;;;;;4932891;29;20209;-85
2023/01/20 10:50:21;;;;;;;26.10;15.70;;;4.20;99.90;;;;;;4927581;29;20399;-86
2023/01/20 10:53:32;;;;;;;27.25;16.42;;;4.20;99.90;;;;;;4934382;29;20211;-88
2023/01/20 10:56:41;;;;;;;24.67;16.88;;;4.20;99.90;;;;;;4933900;29;20183;-87
2023/01/20 10:59:34;;;;;;;24.25;15.93;;;4.20;99.90;;;;;;4941114;29;20218;-87
2023/01/20 11:02:15;;;;;;;28.08;20.90;;;4.10;99.90;;;;;;4956938;29;20260;-83
2023/01/20 11:04:48;;;;;;;26.13;18.75;;;4.10;99.90;;;;;;4960757;29;20182;-86
2023/01/20 11:07:17;;;;;;;24.27;17.48;;;4.20;99.90;;;;;;4935720;29;20210;-86
2023/01/20 11:09:47;;;;;;;27.83;19.48;;;4.00;99.90;;;;;;4929844;29;20287;-87
2023/01/20 11:12:26;;;;;;;31.30;20.20;;;4.20;99.90;;;;;;4928379;29;20215;-86
2023/01/20 11:14:59;;;;;;;40.22;22.08;;;4.30;99.90;;;;;;4930337;29;20221;-86
2023/01/20 11:17:28;;;;;;;30.13;21.38;;;4.20;99.90;;;;;;4952302;29;20242;-85
2023/01/20 11:20:07;;;;;;;33.55;23.88;;;4.20;99.90;;;;;;4945736;29;20190;-84
2023/01/20 11:22:48;;;;;;;44.90;25.50;;;4.20;99.90;;;;;;4933347;29;20211;-86
2023/01/20 11:25:25;;;;;;;31.90;21.80;;;4.30;99.90;;;;;;4934080;29;20218;-87
2023/01/20 11:28:22;;;;;;;29.30;21.13;;;4.50;99.90;;;;;;4934203;28;20207;-87
2023/01/20 11:31:09;;;;;;;33.17;20.52;;;4.60;99.90;;;;;;4928083;29;20219;-88
2023/01/20 11:33:36;;;;;;;31.70;19.00;;;4.70;99.90;;;;;;4929302;29;20200;-90
2023/01/20 11:36:17;;;;;;;33.80;17.45;;;5.00;99.90;;;;;;4936238;29;20227;-88
2023/01/20 11:38:48;;;;;;;27.55;16.20;;;5.10;99.90;;;;;;4930206;29;20212;-87
2023/01/20 11:41:24;;;;;;;26.08;19.85;;;5.20;99.90;;;;;;4937229;29;20518;-89
2023/01/20 11:44:07;;;;;;;28.02;17.40;;;5.20;99.90;;;;;;4920512;29;20211;-90
2023/01/20 11:46:37;;;;;;;21.60;15.30;;;5.40;99.90;;;;;;4932754;29;20192;-91
2023/01/20 11:49:16;;;;;;;27.58;14.85;;;5.40;99.90;;;;;;4933472;29;20212;-89
2023/01/20 11:51:53;;;;;;;20.55;13.85;;;5.50;99.90;;;;;;4934113;29;20196;-89
2023/01/20 11:54:28;;;;;;;21.85;13.27;;;5.60;99.90;;;;;;4934645;29;20235;-90
2023/01/20 11:57:04;;;;;;;22.40;14.07;;;5.30;99.90;;;;;;5207950;23;20349;-90
2023/01/20 11:59:34;;;;;;;21.27;15.77;;;5.20;99.90;;;;;;4903181;29;20205;-90
2023/01/20 12:05:12;;;;;;;25.45;14.68;;;5.40;99.90;;;;;;4914224;29;20205;-92
2023/01/20 12:07:51;;;;;;;24.77;15.38;;;5.30;99.90;;;;;;4916760;29;20235;-91
2023/01/20 12:13:13;;;;;;;25.30;14.48;;;5.10;99.90;;;;;;4989780;23;20304;-88
2023/01/20 12:18:10;;;;;;;20.60;13.50;;;5.20;99.90;;;;;;5039147;23;20244;-90
2023/01/20 12:20:47;;;;;;;23.27;15.07;;;5.20;99.90;;;;;;5585652;23;20303;-87
2023/01/20 12:23:55;;;;;;;27.45;14.82;;;5.00;99.90;;;;;;4929086;29;20441;-89
2023/01/20 12:26:25;;;;;;;24.73;16.67;;;4.90;99.90;;;;;;4935166;29;20176;-91
2023/01/20 12:29:16;;;;;;;29.42;18.40;;;4.70;99.90;;;;;;5121031;23;20255;-89
2023/01/20 12:31:47;;;;;;;22.45;15.02;;;4.50;99.90;;;;;;5147603;23;20232;-89
2023/01/20 12:37:09;;;;;;;26.45;17.58;;;4.30;99.90;;;;;;5364949;23;20247;-91
2023/01/20 12:39:59;;;;;;;27.48;17.80;;;4.40;99.90;;;;;;4994158;23;20253;-90
2023/01/20 12:45:45;;;;;;;31.75;22.83;;;4.30;99.90;;;;;;5048939;23;20237;-88
2023/01/20 12:48:50;;;;;;;25.40;18.60;;;4.30;99.90;;;;;;4927193;29;20205;-89
2023/01/20 12:51:35;;;;;;;22.05;16.55;;;4.30;99.90;;;;;;4918857;29;20203;-90
2023/01/20 12:54:35;;;;;;;27.98;18.25;;;4.20;99.90;;;;;;5279619;23;20224;-89
2023/01/20 12:57:25;;;;;;;25.55;17.90;;;4.10;99.90;;;;;;4934715;23;20262;-90
2023/01/20 13:19:36;;;;;;;43.97;27.17;;;4.00;99.90;;;;;;5062938;23;20525;-90
2023/01/20 13:22:19;;;;;;;40.85;28.02;;;4.10;99.90;;;;;;5192344;23;20243;-90
2023/01/20 13:27:32;;;;;;;44.95;30.10;;;4.20;99.90;;;;;;5180403;23;20319;-89
2023/01/20 13:30:03;;;;;;;51.47;28.50;;;4.30;99.90;;;;;;4923579;29;20707;-89
2023/01/20 13:32:34;;;;;;;45.17;30.05;;;4.10;99.90;;;;;;4921480;29;20219;-90
2023/01/20 13:35:21;;;;;;;33.38;21.17;;;4.20;99.90;;;;;;5031878;23;20234;-87
2023/01/20 13:37:48;;;;;;;27.80;17.90;;;4.00;99.90;;;;;;4930531;29;20253;-91
2023/01/20 13:40:37;;;;;;;22.02;16.33;;;3.90;99.90;;;;;;4946337;29;20406;-88
2023/01/20 13:43:24;;;;;;;19.23;15.15;;;3.90;99.90;;;;;;4927637;23;20231;-89
2023/01/20 13:49:11;;;;;;;23.80;14.60;;;3.70;99.90;;;;;;5479231;23;20732;-88
2023/01/20 13:51:42;;;;;;;22.25;15.02;;;3.40;99.90;;;;;;4946792;29;20209;-91
2023/01/20 14:04:47;;;;;;;31.77;19.05;;;3.10;99.90;;;;;;4928209;29;20218;-89
2023/01/20 14:07:25;;;;;;;31.10;19.27;;;3.20;99.90;;;;;;4927424;29;20268;-89
2023/01/20 14:12:28;;;;;;;37.55;21.95;;;3.20;99.90;;;;;;4925196;23;20254;-88
2023/01/20 14:14:55;;;;;;;26.75;20.38;;;3.00;99.90;;;;;;4923446;28;20307;-90
2023/01/20 14:17:25;;;;;;;34.42;21.13;;;3.20;99.90;;;;;;5106515;23;20619;-90
2023/01/20 14:19:57;;;;;;;40.78;23.60;;;3.10;99.90;;;;;;4909165;29;20252;-86